sensor_id;sensor_type;location;lat;lon;timestamp;temperature;humidity
12720;DHT22;6424;48.520;11.228;2023-06-22T00:00:58;19.30;99.90
12720;DHT22;6424;48.520;11.228;2023-06-22T00:03:39;19.30;99.90
12720;DHT22;6424;48.520;11.228;2023-06-22T00:06:20;19.30;99.90
12720;DHT22;6424;48.520;11.228;2023-06-22T00:09:00;19.30;99.90
12720;DHT22;6424;48.520;11.228;2023-06-22T00:11:41;19.30;99.90
12720;DHT22;6424;48.520;11.228;2023-06-22T00:14:22;19.40;99.90
12720;DHT22;6424;48.520;11.228;2023-06-22T00:17:03;19.40;99.90
12720;DHT22;6424;48.520;11.228;2023-06-22T00:19:47;19.40;99.90
12720;DHT22;6424;48.520;11.228;2023-06-22T00:22:27;19.40;99.90
12720;DHT22;6424;48.520;11.228;2023-06-22T00:25:11;19.50;99.90
12720;DHT22;6424;48.520;11.228;2023-06-22T00:27:52;19.50;99.90
12720;DHT22;6424;48.520;11.228;2023-06-22T00:30:33;19.60;99.90
12720;DHT22;6424;48.520;11.228;2023-06-22T00:33:14;19.40;99.90
12720;DHT22;6424;48.520;11.228;2023-06-22T00:35:56;19.40;99.90
12720;DHT22;6424;48.520;11.228;2023-06-22T00:38:37;19.40;99.90
12720;DHT22;6424;48.520;11.228;2023-06-22T00:41:20;19.30;99.90
12720;DHT22;6424;48.520;11.228;2023-06-22T00:44:01;19.20;99.90
12720;DHT22;6424;48.520;11.228;2023-06-22T00:46:42;19.20;99.90
12720;DHT22;6424;48.520;11.228;2023-06-22T00:49:23;19.20;99.90
12720;DHT22;6424;48.520;11.228;2023-06-22T00:52:03;19.10;99.90
12720;DHT22;6424;48.520;11.228;2023-06-22T00:54:50;19.10;99.90
12720;DHT22;6424;48.520;11.228;2023-06-22T00:57:32;19.10;99.90
12720;DHT22;6424;48.520;11.228;2023-06-22T01:00:13;19.00;99.90
12720;DHT22;6424;48.520;11.228;2023-06-22T01:02:54;19.00;99.90
12720;DHT22;6424;48.520;11.228;2023-06-22T01:05:36;18.90;99.90
12720;DHT22;6424;48.520;11.228;2023-06-22T01:08:31;18.90;99.90
12720;DHT22;6424;48.520;11.228;2023-06-22T01:11:25;18.80;99.90
12720;DHT22;6424;48.520;11.228;2023-06-22T01:14:10;18.80;99.90
12720;DHT22;6424;48.520;11.228;2023-06-22T01:16:54;18.80;99.90
12720;DHT22;6424;48.520;11.228;2023-06-22T01:19:54;18.80;99.90
12720;DHT22;6424;48.520;11.228;2023-06-22T01:26:09;18.80;99.90
12720;DHT22;6424;48.520;11.228;2023-06-22T01:28:55;18.80;99.90
12720;DHT22;6424;48.520;11.228;2023-06-22T01:31:38;18.70;99.90
12720;DHT22;6424;48.520;11.228;2023-06-22T01:34:20;18.70;99.90
12720;DHT22;6424;48.520;11.228;2023-06-22T01:37:02;18.60;99.90
12720;DHT22;6424;48.520;11.228;2023-06-22T01:39:44;18.60;99.90
12720;DHT22;6424;48.520;11.228;2023-06-22T01:42:25;18.40;99.90
12720;DHT22;6424;48.520;11.228;2023-06-22T01:44:55;18.30;99.90
12720;DHT22;6424;48.520;11.228;2023-06-22T01:47:37;18.20;99.90
12720;DHT22;6424;48.520;11.228;2023-06-22T01:50:19;18.10;99.90
12720;DHT22;6424;48.520;11.228;2023-06-22T01:53:00;18.00;99.90
12720;DHT22;6424;48.520;11.228;2023-06-22T01:55:26;18.00;99.90
12720;DHT22;6424;48.520;11.228;2023-06-22T01:58:06;18.00;99.90
12720;DHT22;6424;48.520;11.228;2023-06-22T02:00:34;17.90;99.90
12720;DHT22;6424;48.520;11.228;2023-06-22T02:03:23;17.90;99.90
12720;DHT22;6424;48.520;11.228;2023-06-22T02:06:08;17.90;99.90
12720;DHT22;6424;48.520;11.228;2023-06-22T02:08:55;17.90;99.90
12720;DHT22;6424;48.520;11.228;2023-06-22T02:11:39;17.90;99.90
12720;DHT22;6424;48.520;11.228;2023-06-22T02:14:21;17.90;99.90
12720;DHT22;6424;48.520;11.228;2023-06-22T02:17:03;17.90;99.90
12720;DHT22;6424;48.520;11.228;2023-06-22T02:19:30;17.90;99.90
12720;DHT22;6424;48.520;11.228;2023-06-22T02:22:13;17.90;99.90
12720;DHT22;6424;48.520;11.228;2023-06-22T02:24:54;17.90;99.90
12720;DHT22;6424;48.520;11.228;2023-06-22T02:27:35;17.90;99.90
12720;DHT22;6424;48.520;11.228;2023-06-22T02:30:15;17.90;99.90
12720;DHT22;6424;48.520;11.228;2023-06-22T02:32:56;17.90;99.90
12720;DHT22;6424;48.520;11.228;2023-06-22T02:35:40;17.90;99.90
12720;DHT22;6424;48.520;11.228;2023-06-22T02:38:11;17.90;99.90
12720;DHT22;6424;48.520;11.228;2023-06-22T02:40:51;17.90;99.90
12720;DHT22;6424;48.520;11.228;2023-06-22T02:43:32;17.90;99.90
12720;DHT22;6424;48.520;11.228;2023-06-22T02:46:13;17.90;99.90
12720;DHT22;6424;48.520;11.228;2023-06-22T02:48:54;17.90;99.90
12720;DHT22;6424;48.520;11.228;2023-06-22T02:51:20;17.90;99.90
12720;DHT22;6424;48.520;11.228;2023-06-22T02:54:01;17.90;99.90
12720;DHT22;6424;48.520;11.228;2023-06-22T02:56:28;17.90;99.90
12720;DHT22;6424;48.520;11.228;2023-06-22T02:59:11;17.90;99.90
12720;DHT22;6424;48.520;11.228;2023-06-22T03:01:52;17.90;99.90
12720;DHT22;6424;48.520;11.228;2023-06-22T03:04:33;17.90;99.90
12720;DHT22;6424;48.520;11.228;2023-06-22T03:07:15;17.90;99.90
12720;DHT22;6424;48.520;11.228;2023-06-22T03:09:57;17.90;99.90
12720;DHT22;6424;48.520;11.228;2023-06-22T03:12:39;17.90;99.90
12720;DHT22;6424;48.520;11.228;2023-06-22T03:15:20;17.80;99.90
12720;DHT22;6424;48.520;11.228;2023-06-22T03:18:00;17.70;99.90
12720;DHT22;6424;48.520;11.228;2023-06-22T03:20:41;17.60;99.90
12720;DHT22;6424;48.520;11.228;2023-06-22T03:23:22;17.50;99.90
12720;DHT22;6424;48.520;11.228;2023-06-22T03:26:03;17.50;99.90
12720;DHT22;6424;48.520;11.228;2023-06-22T03:28:44;17.50;99.90
12720;DHT22;6424;48.520;11.228;2023-06-22T03:31:25;17.50;99.90
12720;DHT22;6424;48.520;11.228;2023-06-22T03:34:06;17.50;99.90
12720;DHT22;6424;48.520;11.228;2023-06-22T03:36:47;17.50;99.90
12720;DHT22;6424;48.520;11.228;2023-06-22T03:39:27;17.60;99.90
12720;DHT22;6424;48.520;11.228;2023-06-22T03:42:08;17.50;99.90
12720;DHT22;6424;48.520;11.228;2023-06-22T03:44:35;17.60;99.90
12720;DHT22;6424;48.520;11.228;2023-06-22T03:47:03;17.60;99.90
12720;DHT22;6424;48.520;11.228;2023-06-22T03:49:44;17.70;99.90
12720;DHT22;6424;48.520;11.228;2023-06-22T03:52:25;17.70;99.90
12720;DHT22;6424;48.520;11.228;2023-06-22T03:55:06;17.80;99.90
12720;DHT22;6424;48.520;11.228;2023-06-22T03:57:47;17.90;99.90
12720;DHT22;6424;48.520;11.228;2023-06-22T04:00:28;17.90;99.90
12720;DHT22;6424;48.520;11.228;2023-06-22T04:03:09;18.00;99.90
12720;DHT22;6424;48.520;11.228;2023-06-22T04:05:49;18.10;99.90
12720;DHT22;6424;48.520;11.228;2023-06-22T04:08:30;18.10;99.90
12720;DHT22;6424;48.520;11.228;2023-06-22T04:11:11;18.10;99.90
12720;DHT22;6424;48.520;11.228;2023-06-22T04:13:37;18.30;99.90
12720;DHT22;6424;48.520;11.228;2023-06-22T04:16:17;18.50;99.90
12720;DHT22;6424;48.520;11.228;2023-06-22T04:18:58;18.80;99.90
12720;DHT22;6424;48.520;11.228;2023-06-22T04:21:39;19.10;99.90
12720;DHT22;6424;48.520;11.228;2023-06-22T04:24:20;19.60;99.90
12720;DHT22;6424;48.520;11.228;2023-06-22T04:26:45;20.10;99.90
12720;DHT22;6424;48.520;11.228;2023-06-22T04:29:27;20.50;99.90
12720;DHT22;6424;48.520;11.228;2023-06-22T04:32:10;20.80;99.90
12720;DHT22;6424;48.520;11.228;2023-06-22T04:34:53;21.00;99.90
12720;DHT22;6424;48.520;11.228;2023-06-22T04:37:34;21.00;99.90
12720;DHT22;6424;48.520;11.228;2023-06-22T04:40:15;21.00;99.90
12720;DHT22;6424;48.520;11.228;2023-06-22T04:42:56;21.20;99.90
12720;DHT22;6424;48.520;11.228;2023-06-22T04:45:37;21.70;99.90
12720;DHT22;6424;48.520;11.228;2023-06-22T04:48:18;21.90;99.90
12720;DHT22;6424;48.520;11.228;2023-06-22T04:51:00;21.90;99.90
12720;DHT22;6424;48.520;11.228;2023-06-22T04:53:44;22.10;99.90
12720;DHT22;6424;48.520;11.228;2023-06-22T04:56:24;22.40;99.90
12720;DHT22;6424;48.520;11.228;2023-06-22T04:59:08;22.70;99.90
12720;DHT22;6424;48.520;11.228;2023-06-22T05:01:56;22.70;99.90
12720;DHT22;6424;48.520;11.228;2023-06-22T05:04:38;22.50;99.90
12720;DHT22;6424;48.520;11.228;2023-06-22T05:07:19;22.40;99.90
12720;DHT22;6424;48.520;11.228;2023-06-22T05:10:00;22.60;99.90
12720;DHT22;6424;48.520;11.228;2023-06-22T05:12:42;22.80;99.90
12720;DHT22;6424;48.520;11.228;2023-06-22T05:15:22;23.00;99.90
12720;DHT22;6424;48.520;11.228;2023-06-22T05:18:07;23.10;99.90
12720;DHT22;6424;48.520;11.228;2023-06-22T05:20:47;23.20;99.90
12720;DHT22;6424;48.520;11.228;2023-06-22T05:23:28;23.30;99.90
12720;DHT22;6424;48.520;11.228;2023-06-22T05:26:09;23.50;99.90
12720;DHT22;6424;48.520;11.228;2023-06-22T05:28:50;23.50;99.90
12720;DHT22;6424;48.520;11.228;2023-06-22T05:31:17;23.30;99.90
12720;DHT22;6424;48.520;11.228;2023-06-22T05:34:00;23.30;99.90
12720;DHT22;6424;48.520;11.228;2023-06-22T05:36:41;23.30;99.90
12720;DHT22;6424;48.520;11.228;2023-06-22T05:39:24;23.30;99.90
12720;DHT22;6424;48.520;11.228;2023-06-22T05:42:07;23.20;99.90
12720;DHT22;6424;48.520;11.228;2023-06-22T05:44:48;23.30;99.90
12720;DHT22;6424;48.520;11.228;2023-06-22T05:47:29;23.50;99.90
12720;DHT22;6424;48.520;11.228;2023-06-22T05:50:09;23.50;99.90
12720;DHT22;6424;48.520;11.228;2023-06-22T05:52:50;23.50;99.90
12720;DHT22;6424;48.520;11.228;2023-06-22T05:55:31;23.60;99.90
12720;DHT22;6424;48.520;11.228;2023-06-22T05:58:13;23.60;99.90
12720;DHT22;6424;48.520;11.228;2023-06-22T06:00:54;23.70;99.90
12720;DHT22;6424;48.520;11.228;2023-06-22T06:03:34;23.70;99.90
12720;DHT22;6424;48.520;11.228;2023-06-22T06:06:21;23.90;99.90
12720;DHT22;6424;48.520;11.228;2023-06-22T06:08:48;24.00;99.90
12720;DHT22;6424;48.520;11.228;2023-06-22T06:11:28;24.00;99.90
12720;DHT22;6424;48.520;11.228;2023-06-22T06:14:09;24.10;99.90
12720;DHT22;6424;48.520;11.228;2023-06-22T06:16:50;24.30;99.90
12720;DHT22;6424;48.520;11.228;2023-06-22T06:19:31;24.30;99.90
12720;DHT22;6424;48.520;11.228;2023-06-22T06:22:12;24.30;99.90
12720;DHT22;6424;48.520;11.228;2023-06-22T06:24:53;24.30;99.90
12720;DHT22;6424;48.520;11.228;2023-06-22T06:27:34;24.40;99.90
12720;DHT22;6424;48.520;11.228;2023-06-22T06:30:16;24.40;99.90
12720;DHT22;6424;48.520;11.228;2023-06-22T06:32:57;24.30;99.90
12720;DHT22;6424;48.520;11.228;2023-06-22T06:35:38;24.10;99.90
12720;DHT22;6424;48.520;11.228;2023-06-22T06:38:18;24.30;99.90
12720;DHT22;6424;48.520;11.228;2023-06-22T06:40:59;24.30;99.90
12720;DHT22;6424;48.520;11.228;2023-06-22T06:43:40;24.30;99.90
12720;DHT22;6424;48.520;11.228;2023-06-22T06:46:22;24.30;99.90
12720;DHT22;6424;48.520;11.228;2023-06-22T06:49:03;24.40;99.90
12720;DHT22;6424;48.520;11.228;2023-06-22T06:51:44;24.50;99.90
12720;DHT22;6424;48.520;11.228;2023-06-22T06:54:25;24.50;99.90
12720;DHT22;6424;48.520;11.228;2023-06-22T06:57:06;24.70;99.90
12720;DHT22;6424;48.520;11.228;2023-06-22T06:59:46;24.90;99.90
12720;DHT22;6424;48.520;11.228;2023-06-22T07:02:27;25.00;99.90
12720;DHT22;6424;48.520;11.228;2023-06-22T07:05:12;25.10;99.90
12720;DHT22;6424;48.520;11.228;2023-06-22T07:07:53;25.30;99.90
12720;DHT22;6424;48.520;11.228;2023-06-22T07:10:34;25.40;99.90
12720;DHT22;6424;48.520;11.228;2023-06-22T07:13:15;25.60;99.90
12720;DHT22;6424;48.520;11.228;2023-06-22T07:15:55;25.60;99.90
12720;DHT22;6424;48.520;11.228;2023-06-22T07:18:21;25.60;99.90
12720;DHT22;6424;48.520;11.228;2023-06-22T07:21:02;25.60;99.90
12720;DHT22;6424;48.520;11.228;2023-06-22T07:23:31;25.60;99.90
12720;DHT22;6424;48.520;11.228;2023-06-22T07:25:57;25.60;99.90
12720;DHT22;6424;48.520;11.228;2023-06-22T07:28:23;25.70;99.90
12720;DHT22;6424;48.520;11.228;2023-06-22T07:31:04;25.80;99.90
12720;DHT22;6424;48.520;11.228;2023-06-22T07:33:30;25.80;99.90
12720;DHT22;6424;48.520;11.228;2023-06-22T07:36:10;25.90;99.90
12720;DHT22;6424;48.520;11.228;2023-06-22T07:38:51;25.90;99.90
12720;DHT22;6424;48.520;11.228;2023-06-22T07:41:32;26.10;99.90
12720;DHT22;6424;48.520;11.228;2023-06-22T07:44:13;26.20;99.90
12720;DHT22;6424;48.520;11.228;2023-06-22T07:46:39;26.30;99.90
12720;DHT22;6424;48.520;11.228;2023-06-22T07:49:19;26.50;99.90
12720;DHT22;6424;48.520;11.228;2023-06-22T07:52:00;26.60;99.90
12720;DHT22;6424;48.520;11.228;2023-06-22T07:54:42;26.70;99.90
12720;DHT22;6424;48.520;11.228;2023-06-22T07:57:08;26.70;99.90
12720;DHT22;6424;48.520;11.228;2023-06-22T07:59:48;26.80;99.90
12720;DHT22;6424;48.520;11.228;2023-06-22T08:02:29;26.80;99.90
12720;DHT22;6424;48.520;11.228;2023-06-22T08:05:10;26.90;99.90
12720;DHT22;6424;48.520;11.228;2023-06-22T08:07:52;27.00;99.90
12720;DHT22;6424;48.520;11.228;2023-06-22T08:10:33;27.30;99.90
12720;DHT22;6424;48.520;11.228;2023-06-22T08:13:14;27.50;99.90
12720;DHT22;6424;48.520;11.228;2023-06-22T08:15:55;27.70;99.90
12720;DHT22;6424;48.520;11.228;2023-06-22T08:18:36;27.90;99.90
12720;DHT22;6424;48.520;11.228;2023-06-22T08:21:17;28.00;99.90
12720;DHT22;6424;48.520;11.228;2023-06-22T08:23:58;28.20;99.90
12720;DHT22;6424;48.520;11.228;2023-06-22T08:26:39;28.30;99.90
12720;DHT22;6424;48.520;11.228;2023-06-22T08:29:04;28.40;99.90
12720;DHT22;6424;48.520;11.228;2023-06-22T08:31:45;28.60;99.70
12720;DHT22;6424;48.520;11.228;2023-06-22T08:34:26;28.70;98.50
12720;DHT22;6424;48.520;11.228;2023-06-22T08:37:08;28.60;99.60
12720;DHT22;6424;48.520;11.228;2023-06-22T08:39:49;28.80;98.80
12720;DHT22;6424;48.520;11.228;2023-06-22T08:42:30;28.90;99.00
12720;DHT22;6424;48.520;11.228;2023-06-22T08:45:12;29.10;96.80
12720;DHT22;6424;48.520;11.228;2023-06-22T08:47:53;29.10;96.00
12720;DHT22;6424;48.520;11.228;2023-06-22T08:50:34;29.10;96.40
12720;DHT22;6424;48.520;11.228;2023-06-22T08:53:15;29.20;95.70
12720;DHT22;6424;48.520;11.228;2023-06-22T08:55:56;29.30;97.40
12720;DHT22;6424;48.520;11.228;2023-06-22T08:58:36;29.50;96.20
12720;DHT22;6424;48.520;11.228;2023-06-22T09:01:02;29.60;95.50
12720;DHT22;6424;48.520;11.228;2023-06-22T09:03:43;29.70;95.50
12720;DHT22;6424;48.520;11.228;2023-06-22T09:06:09;29.90;94.70
12720;DHT22;6424;48.520;11.228;2023-06-22T09:08:49;29.90;95.10
12720;DHT22;6424;48.520;11.228;2023-06-22T09:11:30;29.90;93.50
12720;DHT22;6424;48.520;11.228;2023-06-22T09:14:11;30.00;93.60
12720;DHT22;6424;48.520;11.228;2023-06-22T09:16:52;30.00;92.90
12720;DHT22;6424;48.520;11.228;2023-06-22T09:19:33;29.90;93.80
12720;DHT22;6424;48.520;11.228;2023-06-22T09:22:14;30.00;93.40
12720;DHT22;6424;48.520;11.228;2023-06-22T09:24:55;30.20;93.70
12720;DHT22;6424;48.520;11.228;2023-06-22T09:27:36;30.30;92.50
12720;DHT22;6424;48.520;11.228;2023-06-22T09:30:02;30.30;91.70
12720;DHT22;6424;48.520;11.228;2023-06-22T09:32:44;30.20;91.50
12720;DHT22;6424;48.520;11.228;2023-06-22T09:35:25;30.10;91.90
12720;DHT22;6424;48.520;11.228;2023-06-22T09:38:05;30.20;92.60
12720;DHT22;6424;48.520;11.228;2023-06-22T09:40:31;30.20;91.80
12720;DHT22;6424;48.520;11.228;2023-06-22T09:43:17;30.30;92.40
12720;DHT22;6424;48.520;11.228;2023-06-22T09:45:57;30.50;91.70
12720;DHT22;6424;48.520;11.228;2023-06-22T09:48:38;30.60;91.50
12720;DHT22;6424;48.520;11.228;2023-06-22T09:51:19;30.80;90.90
12720;DHT22;6424;48.520;11.228;2023-06-22T09:54:04;30.80;89.90
12720;DHT22;6424;48.520;11.228;2023-06-22T09:56:44;30.80;89.80
12720;DHT22;6424;48.520;11.228;2023-06-22T09:59:25;30.70;90.50
12720;DHT22;6424;48.520;11.228;2023-06-22T10:02:06;30.70;88.80
12720;DHT22;6424;48.520;11.228;2023-06-22T10:04:47;30.70;88.60
12720;DHT22;6424;48.520;11.228;2023-06-22T10:07:13;30.70;88.50
12720;DHT22;6424;48.520;11.228;2023-06-22T10:09:54;30.60;90.20
12720;DHT22;6424;48.520;11.228;2023-06-22T10:12:35;30.60;89.70
12720;DHT22;6424;48.520;11.228;2023-06-22T10:15:16;30.60;89.10
12720;DHT22;6424;48.520;11.228;2023-06-22T10:17:57;30.50;88.00
12720;DHT22;6424;48.520;11.228;2023-06-22T10:20:37;30.50;87.00
12720;DHT22;6424;48.520;11.228;2023-06-22T10:23:19;30.50;87.40
12720;DHT22;6424;48.520;11.228;2023-06-22T10:26:00;30.60;87.80
12720;DHT22;6424;48.520;11.228;2023-06-22T10:28:41;30.80;86.60
12720;DHT22;6424;48.520;11.228;2023-06-22T10:31:22;30.80;87.70
12720;DHT22;6424;48.520;11.228;2023-06-22T10:34:02;31.10;88.00
12720;DHT22;6424;48.520;11.228;2023-06-22T10:36:44;31.20;87.10
12720;DHT22;6424;48.520;11.228;2023-06-22T10:39:27;31.40;83.30
12720;DHT22;6424;48.520;11.228;2023-06-22T10:42:08;31.40;82.60
12720;DHT22;6424;48.520;11.228;2023-06-22T10:44:49;31.20;84.10
12720;DHT22;6424;48.520;11.228;2023-06-22T10:47:30;31.00;82.80
12720;DHT22;6424;48.520;11.228;2023-06-22T10:49:55;30.80;84.90
12720;DHT22;6424;48.520;11.228;2023-06-22T10:52:36;30.60;83.60
12720;DHT22;6424;48.520;11.228;2023-06-22T10:55:17;30.50;85.10
12720;DHT22;6424;48.520;11.228;2023-06-22T10:57:43;30.50;84.40
12720;DHT22;6424;48.520;11.228;2023-06-22T11:00:10;30.60;85.10
12720;DHT22;6424;48.520;11.228;2023-06-22T11:02:52;30.80;86.20
12720;DHT22;6424;48.520;11.228;2023-06-22T11:05:32;31.00;84.30
12720;DHT22;6424;48.520;11.228;2023-06-22T11:08:13;31.10;82.50
12720;DHT22;6424;48.520;11.228;2023-06-22T11:10:54;31.10;81.80
12720;DHT22;6424;48.520;11.228;2023-06-22T11:13:35;31.20;81.70
12720;DHT22;6424;48.520;11.228;2023-06-22T11:16:00;31.30;82.10
12720;DHT22;6424;48.520;11.228;2023-06-22T11:18:26;31.40;79.90
12720;DHT22;6424;48.520;11.228;2023-06-22T11:20:52;31.30;81.90
12720;DHT22;6424;48.520;11.228;2023-06-22T11:23:33;31.40;81.70
12720;DHT22;6424;48.520;11.228;2023-06-22T11:26:14;31.50;79.70
12720;DHT22;6424;48.520;11.228;2023-06-22T11:28:55;31.60;79.00
12720;DHT22;6424;48.520;11.228;2023-06-22T11:31:36;31.50;78.50
12720;DHT22;6424;48.520;11.228;2023-06-22T11:34:16;31.60;80.40
12720;DHT22;6424;48.520;11.228;2023-06-22T11:36:57;31.70;78.50
12720;DHT22;6424;48.520;11.228;2023-06-22T11:39:38;31.70;77.40
12720;DHT22;6424;48.520;11.228;2023-06-22T11:42:19;31.90;78.70
12720;DHT22;6424;48.520;11.228;2023-06-22T11:45:00;32.10;78.80
12720;DHT22;6424;48.520;11.228;2023-06-22T11:47:41;32.20;77.40
12720;DHT22;6424;48.520;11.228;2023-06-22T15:59:58;33.10;69.50
12720;DHT22;6424;48.520;11.228;2023-06-22T16:02:39;32.90;71.20
12720;DHT22;6424;48.520;11.228;2023-06-22T16:05:20;32.60;73.00
12720;DHT22;6424;48.520;11.228;2023-06-22T16:08:00;32.50;72.80
12720;DHT22;6424;48.520;11.228;2023-06-22T16:10:41;32.50;74.80
12720;DHT22;6424;48.520;11.228;2023-06-22T16:13:22;32.60;75.00
12720;DHT22;6424;48.520;11.228;2023-06-22T16:15:48;32.50;74.70
12720;DHT22;6424;48.520;11.228;2023-06-22T16:18:28;32.60;73.60
12720;DHT22;6424;48.520;11.228;2023-06-22T16:21:09;32.60;73.40
12720;DHT22;6424;48.520;11.228;2023-06-22T16:23:50;32.50;73.20
12720;DHT22;6424;48.520;11.228;2023-06-22T16:26:38;32.60;75.70
12720;DHT22;6424;48.520;11.228;2023-06-22T16:29:19;32.50;72.60
12720;DHT22;6424;48.520;11.228;2023-06-22T16:32:00;32.40;75.40
12720;DHT22;6424;48.520;11.228;2023-06-22T16:34:41;32.30;73.50
12720;DHT22;6424;48.520;11.228;2023-06-22T16:37:21;32.30;74.00
12720;DHT22;6424;48.520;11.228;2023-06-22T16:40:02;32.30;75.10
12720;DHT22;6424;48.520;11.228;2023-06-22T16:42:48;32.20;74.80
12720;DHT22;6424;48.520;11.228;2023-06-22T16:45:30;32.10;74.70
12720;DHT22;6424;48.520;11.228;2023-06-22T16:48:13;32.10;74.80
12720;DHT22;6424;48.520;11.228;2023-06-22T16:50:53;32.00;75.40
12720;DHT22;6424;48.520;11.228;2023-06-22T16:53:34;31.80;76.70
12720;DHT22;6424;48.520;11.228;2023-06-22T16:56:15;31.60;78.70
12720;DHT22;6424;48.520;11.228;2023-06-22T16:58:57;31.40;79.20
12720;DHT22;6424;48.520;11.228;2023-06-22T17:01:25;31.10;79.20
12720;DHT22;6424;48.520;11.228;2023-06-22T17:04:10;31.00;81.30
12720;DHT22;6424;48.520;11.228;2023-06-22T17:06:59;30.90;82.60
12720;DHT22;6424;48.520;11.228;2023-06-22T17:09:47;30.70;83.20
12720;DHT22;6424;48.520;11.228;2023-06-22T17:12:28;30.40;84.80
12720;DHT22;6424;48.520;11.228;2023-06-22T17:15:10;30.20;84.80
12720;DHT22;6424;48.520;11.228;2023-06-22T17:17:54;30.00;84.10
12720;DHT22;6424;48.520;11.228;2023-06-22T17:20:35;29.90;85.00
12720;DHT22;6424;48.520;11.228;2023-06-22T17:23:16;29.70;91.30
12720;DHT22;6424;48.520;11.228;2023-06-22T17:25:58;29.50;93.00
12720;DHT22;6424;48.520;11.228;2023-06-22T17:28:51;29.00;95.40
12720;DHT22;6424;48.520;11.228;2023-06-22T17:31:38;28.40;99.90
12720;DHT22;6424;48.520;11.228;2023-06-22T17:34:19;27.90;99.90
12720;DHT22;6424;48.520;11.228;2023-06-22T17:37:01;27.50;99.90
12720;DHT22;6424;48.520;11.228;2023-06-22T17:39:51;27.20;99.90
12720;DHT22;6424;48.520;11.228;2023-06-22T17:42:32;27.00;99.90
12720;DHT22;6424;48.520;11.228;2023-06-22T17:45:19;26.80;99.90
12720;DHT22;6424;48.520;11.228;2023-06-22T17:47:59;26.50;99.90
12720;DHT22;6424;48.520;11.228;2023-06-22T17:50:43;26.20;99.90
12720;DHT22;6424;48.520;11.228;2023-06-22T17:53:26;26.00;99.90
12720;DHT22;6424;48.520;11.228;2023-06-22T17:56:08;25.70;99.90
12720;DHT22;6424;48.520;11.228;2023-06-22T17:58:53;25.50;99.90
12720;DHT22;6424;48.520;11.228;2023-06-22T18:01:38;25.30;99.90
12720;DHT22;6424;48.520;11.228;2023-06-22T18:04:18;25.20;99.90
12720;DHT22;6424;48.520;11.228;2023-06-22T18:07:01;25.10;99.90
12720;DHT22;6424;48.520;11.228;2023-06-22T18:09:42;25.10;99.90
12720;DHT22;6424;48.520;11.228;2023-06-22T18:12:23;25.00;99.90
12720;DHT22;6424;48.520;11.228;2023-06-22T18:15:05;24.90;99.90
12720;DHT22;6424;48.520;11.228;2023-06-22T18:17:47;24.90;99.90
12720;DHT22;6424;48.520;11.228;2023-06-22T18:20:30;24.70;99.90
12720;DHT22;6424;48.520;11.228;2023-06-22T18:23:13;24.60;99.90
12720;DHT22;6424;48.520;11.228;2023-06-22T18:25:54;24.50;99.90
12720;DHT22;6424;48.520;11.228;2023-06-22T18:28:35;24.40;99.90
12720;DHT22;6424;48.520;11.228;2023-06-22T18:31:02;24.30;99.90
12720;DHT22;6424;48.520;11.228;2023-06-22T18:33:43;24.20;99.90
12720;DHT22;6424;48.520;11.228;2023-06-22T18:36:43;24.10;99.90
12720;DHT22;6424;48.520;11.228;2023-06-22T18:39:26;24.00;99.90
12720;DHT22;6424;48.520;11.228;2023-06-22T18:42:11;24.00;99.90
12720;DHT22;6424;48.520;11.228;2023-06-22T18:44:54;23.90;99.90
12720;DHT22;6424;48.520;11.228;2023-06-22T18:47:35;23.80;99.90
12720;DHT22;6424;48.520;11.228;2023-06-22T18:50:40;23.70;99.90
12720;DHT22;6424;48.520;11.228;2023-06-22T18:53:26;23.70;99.90
12720;DHT22;6424;48.520;11.228;2023-06-22T18:56:12;23.60;99.90
12720;DHT22;6424;48.520;11.228;2023-06-22T18:58:57;23.50;99.90
12720;DHT22;6424;48.520;11.228;2023-06-22T19:01:23;23.50;99.90
12720;DHT22;6424;48.520;11.228;2023-06-22T19:04:15;23.40;99.90
12720;DHT22;6424;48.520;11.228;2023-06-22T19:06:57;23.40;99.90
12720;DHT22;6424;48.520;11.228;2023-06-22T19:09:38;23.30;99.90
12720;DHT22;6424;48.520;11.228;2023-06-22T19:15:10;23.20;99.90
12720;DHT22;6424;48.520;11.228;2023-06-22T19:17:52;23.20;99.90
12720;DHT22;6424;48.520;11.228;2023-06-22T19:20:33;23.10;99.90
12720;DHT22;6424;48.520;11.228;2023-06-22T19:23:25;23.10;99.90
12720;DHT22;6424;48.520;11.228;2023-06-22T19:26:08;23.00;99.90
12720;DHT22;6424;48.520;11.228;2023-06-22T19:31:30;22.90;99.90
12720;DHT22;6424;48.520;11.228;2023-06-22T19:34:02;23.00;99.90
12720;DHT22;6424;48.520;11.228;2023-06-22T19:36:45;22.90;99.90
12720;DHT22;6424;48.520;11.228;2023-06-22T19:39:12;22.90;99.90
12720;DHT22;6424;48.520;11.228;2023-06-22T19:41:54;22.90;99.90
12720;DHT22;6424;48.520;11.228;2023-06-22T19:44:35;22.90;99.90
12720;DHT22;6424;48.520;11.228;2023-06-22T19:47:15;22.90;99.90
12720;DHT22;6424;48.520;11.228;2023-06-22T19:49:44;22.90;99.90
12720;DHT22;6424;48.520;11.228;2023-06-22T19:52:33;22.80;99.90
12720;DHT22;6424;48.520;11.228;2023-06-22T19:55:14;22.70;99.90
12720;DHT22;6424;48.520;11.228;2023-06-22T19:57:54;22.60;99.90
12720;DHT22;6424;48.520;11.228;2023-06-22T20:00:35;22.50;99.90
12720;DHT22;6424;48.520;11.228;2023-06-22T20:03:16;22.30;99.90
12720;DHT22;6424;48.520;11.228;2023-06-22T20:06:11;22.20;99.90
12720;DHT22;6424;48.520;11.228;2023-06-22T20:08:55;22.10;99.90
12720;DHT22;6424;48.520;11.228;2023-06-22T20:11:26;22.00;99.90
12720;DHT22;6424;48.520;11.228;2023-06-22T20:14:09;21.70;99.90
12720;DHT22;6424;48.520;11.228;2023-06-22T20:16:50;21.50;99.90
12720;DHT22;6424;48.520;11.228;2023-06-22T20:19:36;21.30;99.90
12720;DHT22;6424;48.520;11.228;2023-06-22T20:22:19;20.70;99.90
12720;DHT22;6424;48.520;11.228;2023-06-22T20:25:00;20.20;99.90
12720;DHT22;6424;48.520;11.228;2023-06-22T20:27:44;20.00;99.90
12720;DHT22;6424;48.520;11.228;2023-06-22T20:30:17;19.90;99.90
12720;DHT22;6424;48.520;11.228;2023-06-22T20:32:58;19.90;99.90
12720;DHT22;6424;48.520;11.228;2023-06-22T20:35:39;19.90;99.90
12720;DHT22;6424;48.520;11.228;2023-06-22T20:38:20;19.80;99.90
12720;DHT22;6424;48.520;11.228;2023-06-22T20:41:03;19.80;99.90
12720;DHT22;6424;48.520;11.228;2023-06-22T20:43:32;19.80;99.90
12720;DHT22;6424;48.520;11.228;2023-06-22T20:46:13;19.80;99.90
12720;DHT22;6424;48.520;11.228;2023-06-22T20:48:39;19.80;99.90
12720;DHT22;6424;48.520;11.228;2023-06-22T20:51:19;19.80;99.90
12720;DHT22;6424;48.520;11.228;2023-06-22T20:54:00;19.80;99.90
12720;DHT22;6424;48.520;11.228;2023-06-22T20:56:41;19.80;99.90
12720;DHT22;6424;48.520;11.228;2023-06-22T20:59:21;19.70;99.90
12720;DHT22;6424;48.520;11.228;2023-06-22T21:02:04;19.70;99.90
12720;DHT22;6424;48.520;11.228;2023-06-22T21:04:30;19.60;99.90
12720;DHT22;6424;48.520;11.228;2023-06-22T21:07:10;19.60;99.90
12720;DHT22;6424;48.520;11.228;2023-06-22T21:09:51;19.60;99.90